CYXJ

Fort St John Airport

Fort St.John, British Columbia, Canada
TAF CYXJ 140038Z 1401/1413 23020G30KT P6SM FEW140 BKN220 BECMG 1401/1403 22015G25KT FM140900 22008KT P6SM SCT060 BKN120 RMK NXT FCST BY 140700Z
Issued Valid From Valid To
Dec-14 @ 00:38 UTC
(2 hours ago)
Dec-14 @ 01:00 UTC
(2 hours ago)
Dec-14 @ 13:00 UTC
(in 10 hours)
Dec-14 @ 01:00 to Dec-14 @ 13:00
TAF CYXJ 140038Z 1401/1413 23020G30KT P6SM FEW140 BKN220
Wind Visibility Clouds
230° at 20 knots
 Gusting to 30 knots
Greater than 6 miles
  • Few at 14,000' AGL
  • Broken at 22,000' AGL
Becoming Dec-14 @ 01:00 to Dec-14 @ 09:00
BECMG 1401/1403 22015G25KT
Wind Visibility Clouds
220° at 15 knots
 Gusting to 25 knots
Greater than 6 miles
  • Few at 14,000' AGL
  • Broken at 22,000' AGL
From Dec-14 @ 09:00 to Dec-14 @ 13:00
FM140900 22008KT P6SM SCT060 BKN120 RMK NXT FCST BY 140700Z
Wind Visibility Clouds
220° at 8 knots Greater than 6 miles
  • Scattered at 6,000' AGL
  • Broken at 12,000' AGL
TAF CYXJ 140038Z 1401/1413 23020G30KT P6SM FEW140 BKN220 BECMG 1401/1403 22015G25KT FM140900 22008KT P6SM SCT060 BKN120 RMK NXT FCST BY 140700Z
Issued Dec-14 @ 00:38 UTC
(2 hours ago)
Valid From Dec-14 @ 01:00 UTC
(2 hours ago)
Valid To Dec-14 @ 13:00 UTC
(in 10 hours)
Dec-14 @ 01:00 - Dec-14 @ 13:00
Wind Visibility
230° at 20 knots
 Gusting to 30 knots
Greater than 6 miles
Clouds
  • Few at 14,000' AGL
  • Broken at 22,000' AGL
Becoming Dec-14 @ 01:00 - Dec-14 @ 09:00
Wind Visibility
220° at 15 knots
 Gusting to 25 knots
Greater than 6 miles
Clouds
  • Few at 14,000' AGL
  • Broken at 22,000' AGL
From Dec-14 @ 09:00 - Dec-14 @ 13:00
Wind Visibility
220° at 8 knots Greater than 6 miles
Clouds
  • Scattered at 6,000' AGL
  • Broken at 12,000' AGL